Time;durP1;ratioP1;P1;durP2;ratioP2;P2;SDS_P1;SDS_P2;PMS_P1;PMS_P2;Temp;Humidity;BMP_temperature;BMP_pressure;BME280_temperature;BME280_humidity;BME280_pressure;Samples;Min_cycle;Max_cycle;Signal;HPM_P1;HPM_P2
2022/07/19 08:16:34;;;;;;;23.60;6.35;;;;;;;;;;5024936;28;20458;-76
2022/07/19 08:19:00;;;;;;;24.52;5.80;;;;;;;;;;5021147;28;20033;-75
2022/07/19 08:21:26;;;;;;;21.83;4.82;;;;;;;;;;5027874;28;20128;-76
2022/07/19 08:23:53;;;;;;;18.65;6.25;;;;;;;;;;5020787;28;20408;-75
2022/07/19 08:26:19;;;;;;;12.27;5.38;;;;;;;;;;5033511;28;20048;-75
2022/07/19 08:28:47;;;;;;;13.82;4.88;;;;;;;;;;5020297;28;20099;-76
2022/07/19 08:31:13;;;;;;;20.85;5.13;;;;;;;;;;5018126;28;20025;-75
2022/07/19 08:33:40;;;;;;;17.30;5.30;;;;;;;;;;5020716;28;20029;-75
2022/07/19 08:36:07;;;;;;;15.35;4.82;;;;;;;;;;5030604;28;20060;-75
2022/07/19 08:38:33;;;;;;;14.38;5.05;;;;;;;;;;5000397;28;20052;-75
2022/07/19 08:41:00;;;;;;;14.27;5.03;;;;;;;;;;5023438;28;20043;-75
2022/07/19 08:43:26;;;;;;;9.90;4.75;;;;;;;;;;5028103;28;20061;-75
2022/07/19 08:45:53;;;;;;;16.27;5.05;;;;;;;;;;5029515;28;20037;-75
2022/07/19 08:48:20;;;;;;;11.60;4.53;;;;;;;;;;5006771;28;20539;-75
2022/07/19 08:50:47;;;;;;;11.77;4.30;;;;;;;;;;5025427;28;20111;-75
2022/07/19 08:53:14;;;;;;;13.63;4.93;;;;;;;;;;5024033;28;20037;-75
2022/07/19 08:55:40;;;;;;;14.07;5.55;;;;;;;;;;5018500;28;20531;-75
2022/07/19 08:58:06;;;;;;;13.65;4.55;;;;;;;;;;5018457;28;20038;-75
2022/07/19 09:00:33;;;;;;;12.95;4.65;;;;;;;;;;5024410;28;20425;-75
2022/07/19 09:03:00;;;;;;;12.77;5.35;;;;;;;;;;5022916;28;20034;-76
2022/07/19 09:05:27;;;;;;;11.05;4.32;;;;;;;;;;5025226;28;20044;-75
2022/07/19 09:08:00;;;;;;;16.40;5.10;;;;;;;;;;5028674;28;20143;-75
2022/07/19 09:10:26;;;;;;;11.27;4.60;;;;;;;;;;5022620;28;20047;-75
2022/07/19 09:13:03;;;;;;;15.18;4.78;;;;;;;;;;5022085;28;20034;-75
2022/07/19 09:15:38;;;;;;;17.02;4.75;;;;;;;;;;5032631;28;20147;-76
2022/07/19 09:18:13;;;;;;;14.27;4.50;;;;;;;;;;5041139;28;20037;-75
2022/07/19 09:20:40;;;;;;;13.07;4.90;;;;;;;;;;5043201;28;20050;-76
2022/07/19 09:23:06;;;;;;;12.20;4.80;;;;;;;;;;5040727;28;20044;-76
2022/07/19 09:25:40;;;;;;;15.30;4.43;;;;;;;;;;5044950;28;20423;-75
2022/07/19 09:28:06;;;;;;;14.63;4.57;;;;;;;;;;5042713;28;20553;-76
2022/07/19 09:30:36;;;;;;;12.50;4.97;;;;;;;;;;5039092;28;20043;-76
2022/07/19 09:33:13;;;;;;;12.13;5.15;;;;;;;;;;5039173;28;20032;-75
2022/07/19 09:35:43;;;;;;;15.90;5.13;;;;;;;;;;5048264;28;20033;-76
2022/07/19 09:38:20;;;;;;;13.48;4.90;;;;;;;;;;5041387;28;20488;-76
2022/07/19 09:40:47;;;;;;;16.35;5.45;;;;;;;;;;5040271;28;20064;-75
2022/07/19 09:43:13;;;;;;;16.27;5.15;;;;;;;;;;5045747;28;20044;-75
2022/07/19 09:45:39;;;;;;;11.25;5.40;;;;;;;;;;5044133;28;20037;-76
2022/07/19 09:48:05;;;;;;;19.15;5.15;;;;;;;;;;5040330;28;20033;-76
2022/07/19 09:50:31;;;;;;;14.00;4.57;;;;;;;;;;5040334;28;20029;-76
2022/07/19 09:52:59;;;;;;;17.10;5.30;;;;;;;;;;5051629;28;20041;-75
2022/07/19 09:55:25;;;;;;;15.90;5.10;;;;;;;;;;5046693;28;20025;-76
2022/07/19 09:57:51;;;;;;;13.43;4.82;;;;;;;;;;5049829;28;20032;-75
2022/07/19 10:00:19;;;;;;;15.77;5.60;;;;;;;;;;5050316;28;20041;-76
2022/07/19 10:02:48;;;;;;;23.27;5.32;;;;;;;;;;5045049;28;20104;-75
2022/07/19 10:05:15;;;;;;;12.52;5.13;;;;;;;;;;5047074;28;20037;-75
2022/07/19 10:07:41;;;;;;;16.33;4.95;;;;;;;;;;5049809;28;20033;-76
2022/07/19 10:10:10;;;;;;;25.30;4.88;;;;;;;;;;5049390;28;20464;-76
2022/07/19 10:12:37;;;;;;;13.90;4.47;;;;;;;;;;5044578;28;20626;-75
2022/07/19 10:15:03;;;;;;;10.95;4.38;;;;;;;;;;5046722;28;20052;-76
2022/07/19 10:17:33;;;;;;;10.73;3.78;;;;;;;;;;5055598;28;20036;-76
2022/07/19 10:20:00;;;;;;;15.50;4.45;;;;;;;;;;5048403;28;20112;-76
2022/07/19 10:22:26;;;;;;;11.80;4.70;;;;;;;;;;5047010;28;20531;-75
2022/07/19 10:25:00;;;;;;;8.85;4.70;;;;;;;;;;5047147;28;20064;-76
2022/07/19 10:27:25;;;;;;;10.57;4.28;;;;;;;;;;5047509;28;20036;-76
2022/07/19 10:29:52;;;;;;;9.95;4.28;;;;;;;;;;5045657;28;20036;-76
2022/07/19 10:32:18;;;;;;;12.23;4.60;;;;;;;;;;5046253;28;20087;-76
2022/07/19 10:34:46;;;;;;;13.07;4.15;;;;;;;;;;5045992;28;20135;-75
2022/07/19 10:37:12;;;;;;;11.77;4.25;;;;;;;;;;5042423;28;20029;-76
2022/07/19 10:39:39;;;;;;;12.40;4.05;;;;;;;;;;5045089;28;20071;-76
2022/07/19 10:42:05;;;;;;;11.30;4.28;;;;;;;;;;5047068;28;20029;-75
2022/07/19 10:44:31;;;;;;;14.68;4.40;;;;;;;;;;5055990;28;20035;-75
2022/07/19 10:46:57;;;;;;;13.93;4.10;;;;;;;;;;5044681;28;20141;-76
2022/07/19 10:49:43;;;;;;;9.00;4.13;;;;;;;;;;5045331;28;20037;-76
2022/07/19 10:52:27;;;;;;;9.43;3.40;;;;;;;;;;5046952;28;20028;-76
2022/07/19 10:55:12;;;;;;;8.40;3.78;;;;;;;;;;5045781;28;20037;-76
2022/07/19 10:57:39;;;;;;;9.73;3.15;;;;;;;;;;5045327;28;20167;-76
2022/07/19 11:00:18;;;;;;;11.82;3.90;;;;;;;;;;5042433;28;20026;-76
2022/07/19 11:02:44;;;;;;;11.48;3.95;;;;;;;;;;5037804;28;20121;-76
2022/07/19 11:05:25;;;;;;;10.38;3.67;;;;;;;;;;5041712;28;20029;-76
2022/07/19 11:07:52;;;;;;;10.35;5.05;;;;;;;;;;5043033;28;20037;-76
2022/07/19 11:10:23;;;;;;;9.15;3.78;;;;;;;;;;5052015;28;20035;-76
2022/07/19 11:12:49;;;;;;;8.07;3.78;;;;;;;;;;5035883;28;20037;-76
2022/07/19 11:15:16;;;;;;;13.70;3.92;;;;;;;;;;5047761;28;20079;-76
2022/07/19 11:17:56;;;;;;;12.98;4.15;;;;;;;;;;5041662;28;20039;-76
2022/07/19 11:20:23;;;;;;;10.98;3.80;;;;;;;;;;5046340;28;20056;-76
2022/07/19 11:22:49;;;;;;;9.10;4.53;;;;;;;;;;5046307;28;20048;-76
2022/07/19 11:25:16;;;;;;;14.93;3.70;;;;;;;;;;5047423;28;20081;-76
2022/07/19 11:27:43;;;;;;;9.32;4.10;;;;;;;;;;5044779;28;20037;-76
2022/07/19 11:30:09;;;;;;;8.52;3.60;;;;;;;;;;5045787;28;20021;-76
2022/07/19 11:32:36;;;;;;;15.13;4.30;;;;;;;;;;5042562;28;20545;-76
2022/07/19 11:35:06;;;;;;;9.77;4.13;;;;;;;;;;5048615;28;20048;-76
2022/07/19 11:37:34;;;;;;;10.95;4.05;;;;;;;;;;5042825;28;20041;-76
2022/07/19 11:40:00;;;;;;;9.55;4.03;;;;;;;;;;5046954;28;20060;-76
2022/07/19 11:42:34;;;;;;;8.27;3.83;;;;;;;;;;5047042;28;20804;-76
2022/07/19 11:45:07;;;;;;;9.63;3.60;;;;;;;;;;5044208;28;20076;-75
2022/07/19 11:47:34;;;;;;;14.02;4.70;;;;;;;;;;5043857;28;20278;-76
2022/07/19 11:50:04;;;;;;;11.88;4.70;;;;;;;;;;5045104;28;20128;-76
2022/07/19 11:52:40;;;;;;;8.98;3.88;;;;;;;;;;5040413;28;20036;-76
2022/07/19 11:55:07;;;;;;;13.43;4.43;;;;;;;;;;5041431;28;20035;-76
2022/07/19 11:57:33;;;;;;;11.45;4.07;;;;;;;;;;5040039;28;20041;-76
2022/07/19 11:59:59;;;;;;;10.20;4.15;;;;;;;;;;5050582;28;20036;-76
2022/07/19 12:02:25;;;;;;;14.85;4.30;;;;;;;;;;5053605;28;20025;-76
2022/07/19 12:04:51;;;;;;;10.35;4.07;;;;;;;;;;5043195;28;20043;-76
2022/07/19 12:07:18;;;;;;;8.93;4.07;;;;;;;;;;5041476;28;20036;-76
2022/07/19 12:09:44;;;;;;;9.13;4.35;;;;;;;;;;5040402;28;20033;-76
2022/07/19 12:12:17;;;;;;;14.57;3.83;;;;;;;;;;5047322;28;20036;-76
2022/07/19 12:14:44;;;;;;;11.90;4.30;;;;;;;;;;5036803;28;20061;-76
2022/07/19 12:17:18;;;;;;;10.77;4.43;;;;;;;;;;5027187;28;20029;-76
2022/07/19 12:19:46;;;;;;;9.20;3.85;;;;;;;;;;5022204;28;20057;-76
2022/07/19 12:22:33;;;;;;;9.98;4.70;;;;;;;;;;5025131;28;20044;-76
2022/07/19 12:24:59;;;;;;;7.80;4.10;;;;;;;;;;5025145;28;20583;-76
2022/07/19 12:27:28;;;;;;;11.60;4.70;;;;;;;;;;5031117;28;20024;-76
2022/07/19 12:29:55;;;;;;;9.85;4.35;;;;;;;;;;5022641;28;20138;-75
2022/07/19 12:32:33;;;;;;;7.90;3.97;;;;;;;;;;5028605;28;20026;-76
2022/07/19 12:35:04;;;;;;;10.73;4.05;;;;;;;;;;5026186;28;20056;-76
2022/07/19 12:37:32;;;;;;;14.68;4.20;;;;;;;;;;5025660;28;20032;-76
2022/07/19 12:40:12;;;;;;;10.45;4.97;;;;;;;;;;5023418;28;20064;-76
2022/07/19 12:42:41;;;;;;;9.07;4.60;;;;;;;;;;5018259;28;20424;-76
2022/07/19 12:45:17;;;;;;;11.60;5.68;;;;;;;;;;5022921;28;20072;-76
2022/07/19 12:47:44;;;;;;;8.40;4.40;;;;;;;;;;5021877;28;20393;-76
2022/07/19 12:50:18;;;;;;;7.82;3.95;;;;;;;;;;5022376;28;20109;-76
2022/07/19 12:52:44;;;;;;;13.00;4.47;;;;;;;;;;5023640;28;20113;-76
2022/07/19 12:55:10;;;;;;;10.93;5.00;;;;;;;;;;5024754;28;20061;-76
2022/07/19 12:57:36;;;;;;;12.25;5.03;;;;;;;;;;5024807;28;20068;-76
2022/07/19 13:00:03;;;;;;;8.60;4.40;;;;;;;;;;5027726;28;20134;-76
2022/07/19 13:02:29;;;;;;;12.00;4.97;;;;;;;;;;5027729;28;20079;-76
2022/07/19 13:04:55;;;;;;;8.80;4.35;;;;;;;;;;5027145;28;20025;-76
2022/07/19 13:07:21;;;;;;;8.20;4.50;;;;;;;;;;5026332;28;20075;-76
2022/07/19 13:09:47;;;;;;;8.07;4.63;;;;;;;;;;5023739;28;20976;-76
2022/07/19 13:12:13;;;;;;;7.32;4.45;;;;;;;;;;5024925;28;20044;-76
2022/07/19 13:14:40;;;;;;;11.88;5.15;;;;;;;;;;5027035;28;20056;-76
2022/07/19 13:17:06;;;;;;;12.02;4.20;;;;;;;;;;5040229;28;20033;-76
2022/07/19 13:19:33;;;;;;;7.80;4.60;;;;;;;;;;5043751;28;20494;-76
2022/07/19 13:21:59;;;;;;;9.45;4.45;;;;;;;;;;5030047;28;20384;-76
2022/07/19 13:24:25;;;;;;;8.07;4.18;;;;;;;;;;5043216;28;20107;-76
2022/07/19 13:26:51;;;;;;;8.40;4.20;;;;;;;;;;5040019;28;20468;-76
2022/07/19 13:29:17;;;;;;;7.90;3.92;;;;;;;;;;5050045;28;20033;-76
2022/07/19 13:31:43;;;;;;;13.40;4.68;;;;;;;;;;5044523;28;20060;-76
2022/07/19 13:34:09;;;;;;;8.80;4.57;;;;;;;;;;5039614;28;20117;-75
2022/07/19 13:36:35;;;;;;;8.32;5.05;;;;;;;;;;5044575;28;20060;-75
2022/07/19 13:39:01;;;;;;;7.03;4.22;;;;;;;;;;5040214;28;20075;-76
2022/07/19 13:41:27;;;;;;;8.30;4.22;;;;;;;;;;5035646;28;20539;-76
2022/07/19 13:43:54;;;;;;;11.10;4.60;;;;;;;;;;5050686;28;20725;-76
2022/07/19 13:46:20;;;;;;;10.65;4.47;;;;;;;;;;5047369;28;20033;-75
2022/07/19 13:48:47;;;;;;;10.48;4.97;;;;;;;;;;5041847;28;20043;-76
2022/07/19 13:51:13;;;;;;;8.52;4.30;;;;;;;;;;5040462;28;20041;-76
2022/07/19 13:53:39;;;;;;;9.60;5.22;;;;;;;;;;5041596;28;20040;-76
2022/07/19 13:56:05;;;;;;;9.60;4.30;;;;;;;;;;5041327;28;20037;-76
2022/07/19 13:58:32;;;;;;;10.63;5.13;;;;;;;;;;5041828;28;20112;-76
2022/07/19 14:00:58;;;;;;;10.52;4.90;;;;;;;;;;5040365;28;20041;-76
2022/07/19 14:03:24;;;;;;;10.13;4.63;;;;;;;;;;5042203;28;20124;-76
2022/07/19 14:05:50;;;;;;;10.10;4.50;;;;;;;;;;5040338;28;20476;-76
2022/07/19 14:08:16;;;;;;;8.02;4.22;;;;;;;;;;5024391;28;20030;-76
2022/07/19 14:10:43;;;;;;;10.77;4.40;;;;;;;;;;5049715;28;20036;-76
2022/07/19 14:13:09;;;;;;;10.98;4.70;;;;;;;;;;5043859;28;20103;-76
2022/07/19 14:15:35;;;;;;;6.15;4.78;;;;;;;;;;5039580;28;20480;-76
2022/07/19 14:18:01;;;;;;;11.65;4.40;;;;;;;;;;5041826;28;20056;-76
2022/07/19 14:20:28;;;;;;;12.02;4.97;;;;;;;;;;5041759;28;20063;-76
2022/07/19 14:22:54;;;;;;;10.55;5.10;;;;;;;;;;5036920;28;20042;-76
2022/07/19 14:25:20;;;;;;;9.05;4.50;;;;;;;;;;5039474;28;20028;-76
2022/07/19 14:27:46;;;;;;;11.70;4.90;;;;;;;;;;5038849;28;20037;-76
2022/07/19 14:30:12;;;;;;;7.18;4.85;;;;;;;;;;5040680;28;20458;-76
2022/07/19 14:32:38;;;;;;;12.68;4.88;;;;;;;;;;5037117;28;20043;-76
2022/07/19 14:35:05;;;;;;;9.30;4.60;;;;;;;;;;5045543;28;20033;-76
2022/07/19 14:37:30;;;;;;;11.77;5.50;;;;;;;;;;5050391;28;20039;-76
2022/07/19 14:39:57;;;;;;;8.73;5.18;;;;;;;;;;5045528;28;20041;-76
2022/07/19 14:42:23;;;;;;;12.32;5.35;;;;;;;;;;5047413;28;20072;-76
2022/07/19 14:44:49;;;;;;;11.93;4.70;;;;;;;;;;5044085;28;20032;-76
2022/07/19 14:47:15;;;;;;;13.82;5.15;;;;;;;;;;5046655;28;20144;-76
2022/07/19 14:49:41;;;;;;;9.25;4.40;;;;;;;;;;5046570;28;20120;-75
2022/07/19 14:52:07;;;;;;;14.15;5.05;;;;;;;;;;5041036;28;20068;-76
2022/07/19 14:54:33;;;;;;;11.00;5.13;;;;;;;;;;5045042;28;20033;-75
2022/07/19 14:56:59;;;;;;;7.78;4.78;;;;;;;;;;5043436;28;20037;-76
2022/07/19 14:59:25;;;;;;;10.30;4.80;;;;;;;;;;5025473;28;20456;-75
2022/07/19 15:01:51;;;;;;;9.05;4.63;;;;;;;;;;5050406;28;20033;-75
2022/07/19 15:04:18;;;;;;;13.00;5.30;;;;;;;;;;5044158;28;20044;-76
2022/07/19 15:06:44;;;;;;;13.85;4.90;;;;;;;;;;5043247;28;20035;-76
2022/07/19 15:09:10;;;;;;;13.20;5.38;;;;;;;;;;5017681;28;20040;-76
2022/07/19 15:11:37;;;;;;;8.73;4.63;;;;;;;;;;5052746;28;20039;-76
2022/07/19 15:14:03;;;;;;;9.15;4.88;;;;;;;;;;5039316;28;20037;-76
2022/07/19 15:16:29;;;;;;;8.15;4.90;;;;;;;;;;5048993;28;20041;-76
2022/07/19 15:18:55;;;;;;;6.45;4.63;;;;;;;;;;5042618;28;20387;-76
2022/07/19 15:21:22;;;;;;;13.98;4.60;;;;;;;;;;5042376;28;20074;-76
2022/07/19 15:23:48;;;;;;;10.45;4.47;;;;;;;;;;5039037;28;20049;-76
2022/07/19 15:26:14;;;;;;;8.15;4.50;;;;;;;;;;5049354;28;20486;-75
2022/07/19 15:28:40;;;;;;;8.40;5.43;;;;;;;;;;5041632;28;20029;-76
2022/07/19 15:31:06;;;;;;;8.25;4.68;;;;;;;;;;5045468;28;20079;-75
2022/07/19 15:33:32;;;;;;;9.88;4.32;;;;;;;;;;5041606;28;20033;-75
2022/07/19 15:35:58;;;;;;;9.18;4.18;;;;;;;;;;5045648;28;20040;-76
2022/07/19 15:38:24;;;;;;;10.13;5.10;;;;;;;;;;5044192;28;20391;-75
2022/07/19 15:40:50;;;;;;;10.13;4.18;;;;;;;;;;5045015;28;20061;-75
2022/07/19 15:43:17;;;;;;;8.25;4.20;;;;;;;;;;5040722;28;20044;-76
2022/07/19 15:45:43;;;;;;;10.18;4.68;;;;;;;;;;5039531;28;20060;-76
2022/07/19 15:48:09;;;;;;;9.40;4.82;;;;;;;;;;5038231;28;20036;-76
2022/07/19 15:50:37;;;;;;;7.07;3.95;;;;;;;;;;5039656;28;20032;-75
2022/07/19 15:53:07;;;;;;;10.20;4.68;;;;;;;;;;5045624;28;20040;-75
2022/07/19 15:55:33;;;;;;;11.15;4.10;;;;;;;;;;5042599;28;20041;-75
2022/07/19 15:57:59;;;;;;;9.95;4.40;;;;;;;;;;5041740;28;20040;-76
2022/07/19 16:00:25;;;;;;;8.32;4.65;;;;;;;;;;5042161;28;20037;-76
2022/07/19 16:02:51;;;;;;;8.43;4.32;;;;;;;;;;5046203;28;20029;-76
2022/07/19 16:05:18;;;;;;;9.07;4.80;;;;;;;;;;5042775;28;20083;-76
2022/07/19 16:07:44;;;;;;;12.63;4.90;;;;;;;;;;5044290;28;20647;-75
2022/07/19 16:10:11;;;;;;;12.88;4.60;;;;;;;;;;5043630;28;20037;-76
2022/07/19 16:12:37;;;;;;;10.68;4.90;;;;;;;;;;5035915;28;20034;-76
2022/07/19 16:15:03;;;;;;;8.15;5.20;;;;;;;;;;5033581;28;20540;-76
2022/07/19 16:17:31;;;;;;;11.55;5.35;;;;;;;;;;5024664;28;20022;-76
2022/07/19 16:19:58;;;;;;;6.20;4.50;;;;;;;;;;5027578;28;20033;-76
2022/07/19 16:22:24;;;;;;;10.18;5.47;;;;;;;;;;5013096;28;20031;-76
2022/07/19 16:24:50;;;;;;;10.77;5.30;;;;;;;;;;5031160;28;20064;-76
2022/07/19 16:27:17;;;;;;;7.13;5.10;;;;;;;;;;5028604;28;20109;-76
2022/07/19 16:29:43;;;;;;;6.30;4.80;;;;;;;;;;5009499;28;20048;-75
2022/07/19 16:32:09;;;;;;;11.45;5.68;;;;;;;;;;5026734;28;20547;-76
2022/07/19 16:34:35;;;;;;;11.10;5.15;;;;;;;;;;5022356;28;20025;-75
2022/07/19 16:37:06;;;;;;;8.55;5.25;;;;;;;;;;5022706;28;20476;-76
2022/07/19 16:39:32;;;;;;;;;;;;;;;;;;5024362;28;20045;-76
2022/07/19 16:41:58;;;;;;;8.70;4.80;;;;;;;;;;5024873;28;19919;-76
2022/07/19 16:44:24;;;;;;;8.05;4.57;;;;;;;;;;5027043;28;20036;-76
2022/07/19 16:46:50;;;;;;;7.40;4.70;;;;;;;;;;5028613;28;20052;-76
2022/07/19 16:49:16;;;;;;;7.68;4.72;;;;;;;;;;5019731;28;20030;-76
2022/07/19 16:51:42;;;;;;;11.70;6.10;;;;;;;;;;5031924;28;20032;-75
2022/07/19 16:54:08;;;;;;;7.30;4.95;;;;;;;;;;5027552;28;20033;-75
2022/07/19 16:56:35;;;;;;;9.18;5.72;;;;;;;;;;5027777;28;20123;-76
2022/07/19 16:59:01;;;;;;;7.75;5.35;;;;;;;;;;5013808;28;20038;-75
2022/07/19 17:01:27;;;;;;;9.48;4.70;;;;;;;;;;5032854;28;20044;-76
2022/07/19 17:03:53;;;;;;;9.60;4.60;;;;;;;;;;4998918;28;20045;-76
2022/07/19 17:06:19;;;;;;;8.05;5.10;;;;;;;;;;5019658;28;20045;-75
2022/07/19 17:08:45;;;;;;;9.88;5.25;;;;;;;;;;5019909;28;20463;-76
2022/07/19 17:11:11;;;;;;;11.82;5.38;;;;;;;;;;5020644;28;20029;-76
2022/07/19 17:13:37;;;;;;;9.18;5.40;;;;;;;;;;5023315;28;20033;-75
2022/07/19 17:16:03;;;;;;;9.52;5.18;;;;;;;;;;5040816;28;20061;-75
2022/07/19 17:18:29;;;;;;;9.32;4.75;;;;;;;;;;5048390;28;20037;-75
2022/07/19 17:20:55;;;;;;;6.97;4.68;;;;;;;;;;5041394;28;20052;-76
2022/07/19 17:23:21;;;;;;;9.40;4.93;;;;;;;;;;5045439;28;20479;-76
2022/07/19 17:25:47;;;;;;;9.00;4.72;;;;;;;;;;5041396;28;20040;-76
2022/07/19 17:28:13;;;;;;;10.77;5.82;;;;;;;;;;5039627;28;20175;-76
2022/07/19 17:30:39;;;;;;;8.40;4.80;;;;;;;;;;5043549;28;20083;-76
2022/07/19 17:33:05;;;;;;;6.65;4.57;;;;;;;;;;5022252;28;20036;-76
2022/07/19 17:35:31;;;;;;;9.07;4.78;;;;;;;;;;5044474;28;20115;-76
2022/07/19 17:38:07;;;;;;;9.82;4.70;;;;;;;;;;5047717;28;20029;-76
2022/07/19 17:40:34;;;;;;;10.60;4.70;;;;;;;;;;5038371;28;20073;-75
2022/07/19 17:43:01;;;;;;;6.13;4.53;;;;;;;;;;5050445;28;20391;-75
2022/07/19 17:45:27;;;;;;;7.45;4.80;;;;;;;;;;5041106;28;20052;-75
2022/07/19 17:47:53;;;;;;;10.23;5.38;;;;;;;;;;5039321;28;20052;-75
2022/07/19 17:50:19;;;;;;;11.15;5.25;;;;;;;;;;5043235;28;20056;-75
2022/07/19 17:52:45;;;;;;;12.38;5.97;;;;;;;;;;5044391;28;20484;-75
2022/07/19 17:55:11;;;;;;;10.18;5.47;;;;;;;;;;5037027;28;20070;-75
2022/07/19 17:57:38;;;;;;;11.35;5.68;;;;;;;;;;5042856;28;20037;-75
2022/07/19 18:00:05;;;;;;;9.52;5.40;;;;;;;;;;5039985;28;20044;-75
2022/07/19 18:02:31;;;;;;;11.68;5.80;;;;;;;;;;5022841;28;20147;-75
2022/07/19 18:04:58;;;;;;;10.43;6.20;;;;;;;;;;5043588;28;20057;-75
2022/07/19 18:07:24;;;;;;;8.82;5.05;;;;;;;;;;5046511;28;20044;-75
2022/07/19 18:09:50;;;;;;;10.80;5.70;;;;;;;;;;5047838;28;20033;-75
2022/07/19 18:12:16;;;;;;;9.82;5.75;;;;;;;;;;5042630;28;20070;-75
2022/07/19 18:14:42;;;;;;;9.63;5.75;;;;;;;;;;5036110;28;20081;-75
2022/07/19 18:17:08;;;;;;;9.73;6.18;;;;;;;;;;5029575;28;20034;-75
2022/07/19 18:19:35;;;;;;;8.43;5.60;;;;;;;;;;5030888;28;20056;-75
2022/07/19 18:22:02;;;;;;;8.70;5.97;;;;;;;;;;5031051;28;20036;-75
2022/07/19 18:24:28;;;;;;;9.82;5.70;;;;;;;;;;5022046;28;20040;-75
2022/07/19 18:26:54;;;;;;;9.57;5.40;;;;;;;;;;5025899;28;20030;-75
2022/07/19 18:29:21;;;;;;;10.07;6.03;;;;;;;;;;5037706;28;20034;-75
2022/07/19 18:31:47;;;;;;;8.38;5.65;;;;;;;;;;5025924;28;20411;-75
2022/07/19 18:34:13;;;;;;;12.52;6.03;;;;;;;;;;5026527;28;20042;-75
2022/07/19 18:36:39;;;;;;;12.63;6.05;;;;;;;;;;5028255;28;20072;-75
2022/07/19 18:39:05;;;;;;;12.40;5.55;;;;;;;;;;5024394;28;20033;-75
2022/07/19 18:41:31;;;;;;;11.30;6.40;;;;;;;;;;5027917;28;20508;-75
2022/07/19 18:43:57;;;;;;;17.83;6.10;;;;;;;;;;5027148;28;20076;-75
2022/07/19 18:46:23;;;;;;;10.88;6.03;;;;;;;;;;5012399;28;20298;-75
2022/07/19 18:48:49;;;;;;;9.45;6.28;;;;;;;;;;5026536;28;20075;-75
2022/07/19 18:51:16;;;;;;;13.38;6.47;;;;;;;;;;5023074;28;20026;-75
2022/07/19 18:53:42;;;;;;;11.30;6.10;;;;;;;;;;5024257;28;20060;-75
2022/07/19 18:56:09;;;;;;;7.32;6.18;;;;;;;;;;5027291;28;20111;-75
2022/07/19 18:58:35;;;;;;;13.68;6.47;;;;;;;;;;5006403;28;20037;-75
2022/07/19 19:01:02;;;;;;;10.15;6.15;;;;;;;;;;5024916;28;20038;-75
2022/07/19 19:03:28;;;;;;;7.75;6.15;;;;;;;;;;5027081;28;20693;-75
2022/07/19 19:05:54;;;;;;;8.90;6.43;;;;;;;;;;5023775;28;20119;-75
2022/07/19 19:08:20;;;;;;;12.27;7.55;;;;;;;;;;5027348;28;20713;-75
2022/07/19 19:10:46;;;;;;;12.30;7.30;;;;;;;;;;5027754;28;20530;-75
2022/07/19 19:13:13;;;;;;;9.85;6.25;;;;;;;;;;5021303;28;20037;-75
2022/07/19 19:15:39;;;;;;;7.85;7.05;;;;;;;;;;5011095;28;20466;-75
2022/07/19 19:18:05;;;;;;;9.30;6.78;;;;;;;;;;5022633;28;20044;-75
2022/07/19 19:20:32;;;;;;;7.75;5.50;;;;;;;;;;5012698;28;20035;-75
2022/07/19 19:22:58;;;;;;;9.35;6.30;;;;;;;;;;5025475;28;20037;-75
2022/07/19 19:25:24;;;;;;;11.70;5.78;;;;;;;;;;5033606;28;20400;-75
2022/07/19 19:27:50;;;;;;;9.85;6.07;;;;;;;;;;5022081;28;20038;-75
2022/07/19 19:30:17;;;;;;;10.45;6.00;;;;;;;;;;5029694;28;20033;-75
2022/07/19 19:32:43;;;;;;;9.38;5.95;;;;;;;;;;5025404;28;20044;-75
2022/07/19 19:35:09;;;;;;;9.02;6.10;;;;;;;;;;5023574;28;20504;-75
2022/07/19 19:37:36;;;;;;;10.27;6.13;;;;;;;;;;5021825;28;20041;-75
2022/07/19 19:40:02;;;;;;;7.50;5.93;;;;;;;;;;5021358;28;20036;-75
2022/07/19 19:42:29;;;;;;;9.73;6.30;;;;;;;;;;5014263;28;20034;-75
2022/07/19 19:44:55;;;;;;;10.48;6.93;;;;;;;;;;5023414;28;20026;-75
2022/07/19 19:47:21;;;;;;;9.57;7.03;;;;;;;;;;5022930;28;20088;-75
2022/07/19 19:49:47;;;;;;;9.65;6.72;;;;;;;;;;5027199;28;20040;-75
2022/07/19 19:52:13;;;;;;;8.35;6.68;;;;;;;;;;5025791;28;20343;-75
2022/07/19 19:54:39;;;;;;;12.98;6.47;;;;;;;;;;5015320;28;20037;-75
2022/07/19 19:57:05;;;;;;;7.97;6.32;;;;;;;;;;5017559;28;20036;-75
2022/07/19 19:59:31;;;;;;;9.20;6.57;;;;;;;;;;5030204;28;20033;-75
2022/07/19 20:01:57;;;;;;;11.10;6.50;;;;;;;;;;5024436;28;20025;-75
2022/07/19 20:04:24;;;;;;;10.88;6.38;;;;;;;;;;5023229;28;20033;-75
2022/07/19 20:06:50;;;;;;;9.93;6.43;;;;;;;;;;5028265;28;20049;-76
2022/07/19 20:09:17;;;;;;;7.38;6.32;;;;;;;;;;5024433;28;20030;-75
2022/07/19 20:11:43;;;;;;;8.07;6.20;;;;;;;;;;5023901;28;20117;-75
2022/07/19 20:14:09;;;;;;;12.38;6.60;;;;;;;;;;5027210;28;20088;-75
2022/07/19 20:16:36;;;;;;;7.38;6.68;;;;;;;;;;5045778;28;20185;-75
2022/07/19 20:19:02;;;;;;;8.90;6.47;;;;;;;;;;5045583;28;20525;-75
2022/07/19 20:21:28;;;;;;;7.85;5.57;;;;;;;;;;5046059;28;20090;-75
2022/07/19 20:23:54;;;;;;;10.25;6.25;;;;;;;;;;5027264;28;20042;-75
2022/07/19 20:26:21;;;;;;;10.88;6.32;;;;;;;;;;5034720;28;20029;-75
2022/07/19 20:28:47;;;;;;;11.00;6.72;;;;;;;;;;5038358;28;20641;-75
2022/07/19 20:31:13;;;;;;;7.90;6.07;;;;;;;;;;5040366;28;20033;-75
2022/07/19 20:33:39;;;;;;;9.65;6.63;;;;;;;;;;5041932;28;20056;-75
2022/07/19 20:36:06;;;;;;;8.52;5.80;;;;;;;;;;5039445;28;20400;-75
2022/07/19 20:38:32;;;;;;;8.95;6.18;;;;;;;;;;5043637;28;20059;-75
2022/07/19 20:40:59;;;;;;;8.43;6.18;;;;;;;;;;5040803;28;20071;-75
2022/07/19 20:43:25;;;;;;;7.78;5.72;;;;;;;;;;5037771;28;20040;-75
2022/07/19 20:45:51;;;;;;;7.57;6.13;;;;;;;;;;5040912;28;20452;-75
2022/07/19 20:48:17;;;;;;;7.82;6.47;;;;;;;;;;5039970;28;20112;-75
2022/07/19 20:50:43;;;;;;;7.35;6.05;;;;;;;;;;5043449;28;20033;-75
2022/07/19 20:53:09;;;;;;;7.10;5.88;;;;;;;;;;5040336;28;20029;-75
2022/07/19 20:55:35;;;;;;;8.15;5.72;;;;;;;;;;5041447;28;20464;-75
2022/07/19 20:58:01;;;;;;;7.45;5.90;;;;;;;;;;5039979;28;20060;-75
2022/07/19 21:00:27;;;;;;;7.80;5.85;;;;;;;;;;5040421;28;20045;-75
2022/07/19 21:02:53;;;;;;;9.73;6.53;;;;;;;;;;5024869;28;20029;-75
2022/07/19 21:05:19;;;;;;;8.43;6.43;;;;;;;;;;5045219;28;20902;-75
2022/07/19 21:07:45;;;;;;;7.90;5.47;;;;;;;;;;5043409;28;20036;-75
2022/07/19 21:10:11;;;;;;;9.55;5.85;;;;;;;;;;5043623;28;20025;-75
2022/07/19 21:12:37;;;;;;;7.80;5.82;;;;;;;;;;5039534;28;20033;-75
2022/07/19 21:15:04;;;;;;;9.43;5.55;;;;;;;;;;5041313;28;20048;-75
2022/07/19 21:17:31;;;;;;;9.48;5.72;;;;;;;;;;5045491;28;20036;-75
2022/07/19 21:19:57;;;;;;;6.57;5.40;;;;;;;;;;5042971;28;20428;-75
2022/07/19 21:22:23;;;;;;;7.95;6.15;;;;;;;;;;5034569;28;20033;-75
2022/07/19 21:24:49;;;;;;;7.28;5.28;;;;;;;;;;5039633;28;20037;-75
2022/07/19 21:27:15;;;;;;;8.98;5.63;;;;;;;;;;5042933;28;20063;-75
2022/07/19 21:29:42;;;;;;;8.95;6.22;;;;;;;;;;5048995;28;20040;-75
2022/07/19 21:32:08;;;;;;;7.90;5.38;;;;;;;;;;5042773;28;20025;-75
2022/07/19 21:34:34;;;;;;;8.95;6.07;;;;;;;;;;5039974;28;20436;-75
2022/07/19 21:37:02;;;;;;;7.82;5.78;;;;;;;;;;5023704;28;20052;-75
2022/07/19 21:39:28;;;;;;;8.15;6.32;;;;;;;;;;5041274;28;20037;-75
2022/07/19 21:41:54;;;;;;;9.82;5.55;;;;;;;;;;5038027;28;20022;-75
2022/07/19 21:44:20;;;;;;;8.45;6.28;;;;;;;;;;5041183;28;20035;-75
2022/07/19 21:46:46;;;;;;;11.05;6.53;;;;;;;;;;5034219;28;20541;-75
2022/07/19 21:49:12;;;;;;;9.98;5.85;;;;;;;;;;5038284;28;20037;-75
2022/07/19 21:51:38;;;;;;;9.23;5.90;;;;;;;;;;5039245;28;20025;-75
2022/07/19 21:54:04;;;;;;;6.88;5.53;;;;;;;;;;5035659;28;20033;-75
2022/07/19 21:56:30;;;;;;;7.53;6.03;;;;;;;;;;5049140;28;20033;-75
2022/07/19 21:58:57;;;;;;;8.68;6.13;;;;;;;;;;5029389;28;20684;-75
2022/07/19 22:01:24;;;;;;;8.65;5.70;;;;;;;;;;5043058;28;20028;-75
2022/07/19 22:03:50;;;;;;;9.43;5.82;;;;;;;;;;5040597;28;20037;-75
2022/07/19 22:06:16;;;;;;;8.07;5.70;;;;;;;;;;5038124;28;20033;-75
2022/07/19 22:08:42;;;;;;;9.07;5.70;;;;;;;;;;5041819;28;20044;-75
2022/07/19 22:11:08;;;;;;;7.22;5.80;;;;;;;;;;5041183;28;20036;-75
2022/07/19 22:13:34;;;;;;;6.85;5.32;;;;;;;;;;5038299;28;20037;-75
2022/07/19 22:16:00;;;;;;;7.60;6.18;;;;;;;;;;5037581;28;20380;-75
2022/07/19 22:18:28;;;;;;;9.82;6.22;;;;;;;;;;5040083;28;20041;-75
2022/07/19 22:20:55;;;;;;;11.00;5.90;;;;;;;;;;5044988;28;20029;-74
2022/07/19 22:23:25;;;;;;;7.60;5.97;;;;;;;;;;5020144;28;20068;-75
2022/07/19 22:25:51;;;;;;;10.50;6.65;;;;;;;;;;5034392;28;20040;-75
2022/07/19 22:28:17;;;;;;;7.32;5.65;;;;;;;;;;5036642;28;20061;-75
2022/07/19 22:30:43;;;;;;;9.82;6.13;;;;;;;;;;5034541;28;20033;-75
2022/07/19 22:33:09;;;;;;;8.27;6.13;;;;;;;;;;5041142;28;20061;-75
2022/07/19 22:35:35;;;;;;;8.93;5.47;;;;;;;;;;5036742;28;20037;-75
2022/07/19 22:38:02;;;;;;;8.20;5.20;;;;;;;;;;5037345;28;20037;-75
2022/07/19 22:40:28;;;;;;;9.00;4.82;;;;;;;;;;5033685;28;20061;-75
2022/07/19 22:42:54;;;;;;;8.40;5.45;;;;;;;;;;5040671;28;20041;-75
2022/07/19 22:45:20;;;;;;;10.20;5.70;;;;;;;;;;5015726;28;20687;-75
2022/07/19 22:47:46;;;;;;;9.05;5.40;;;;;;;;;;5036192;28;20807;-75
2022/07/19 22:50:12;;;;;;;7.90;4.95;;;;;;;;;;5041113;28;20095;-75
2022/07/19 22:52:38;;;;;;;7.90;5.05;;;;;;;;;;5043984;28;20045;-75